createdAt,value
2023-03-26T00:00:15.437Z,99673.84
2023-03-26T00:02:47.234Z,99685.56
2023-03-26T00:05:15.140Z,99665.63
2023-03-26T00:07:44.114Z,99677.91
2023-03-26T00:10:21.619Z,99646.69
2023-03-26T00:12:49.919Z,99675.84
2023-03-26T00:15:19.852Z,99677.38
2023-03-26T00:17:48.104Z,99676.31
2023-03-26T00:20:16.814Z,99659.69
2023-03-26T00:22:45.437Z,99685.31
2023-03-26T00:25:14.608Z,99635.19
2023-03-26T00:27:45.493Z,99657.38
2023-03-26T00:30:14.281Z,99678.78
2023-03-26T00:32:44.132Z,99677.13
2023-03-26T00:35:22.318Z,99667.94
2023-03-26T00:37:51.748Z,99675.41
2023-03-26T00:40:20.980Z,99663.88
2023-03-26T00:42:51.634Z,99634.72
2023-03-26T00:45:22.198Z,99684.06
2023-03-26T00:47:51.796Z,99676.38
2023-03-26T00:50:19.928Z,99681.28
2023-03-26T00:52:48.552Z,99667.06
2023-03-26T00:55:17.621Z,99636.06
2023-03-26T00:57:47.894Z,99668.72
2023-03-26T01:00:19.051Z,99678.03
2023-03-26T01:02:47.864Z,99640.91
2023-03-26T01:05:46.174Z,99665.03
2023-03-26T01:08:20.820Z,99619.47
2023-03-26T01:10:54.611Z,99636.06
2023-03-26T01:13:25.512Z,99637.44
2023-03-26T01:15:53.966Z,99642.09
2023-03-26T01:18:26.368Z,99605.34
2023-03-26T01:21:05.461Z,99646.06
2023-03-26T01:23:43.832Z,99619.47
2023-03-26T01:26:26.594Z,99632.72
2023-03-26T01:28:58.606Z,99634.88
2023-03-26T01:31:31.358Z,99591.66
2023-03-26T01:34:12.280Z,99634.28
2023-03-26T01:36:58.856Z,99612.53
2023-03-26T01:39:32.697Z,99616.09
2023-03-26T01:42:13.758Z,99627.22
2023-03-26T01:44:46.807Z,99575.13
2023-03-26T01:47:16.482Z,99595.44
2023-03-26T01:49:45.360Z,99624.81
2023-03-26T01:52:17.142Z,99615.84
2023-03-26T01:54:47.229Z,99589.75
2023-03-26T01:57:26.507Z,99610.75
2023-03-26T02:00:12.971Z,99559.13
2023-03-26T02:02:55.636Z,99608.03
2023-03-26T02:05:29.484Z,99610.38
2023-03-26T02:08:04.168Z,99610.22
2023-03-26T02:10:39.937Z,99527.03
2023-03-26T02:13:11.577Z,99603.59
2023-03-26T02:15:46.318Z,99590.00
2023-03-26T02:18:17.928Z,99580.91
2023-03-26T02:20:49.870Z,99542.56
2023-03-26T02:23:18.989Z,99517.19
2023-03-26T02:25:47.747Z,99526.47
2023-03-26T02:28:21.917Z,99577.53
2023-03-26T02:30:57.556Z,99572.94
2023-03-26T02:33:27.597Z,99534.16
2023-03-26T02:35:59.424Z,99551.88
2023-03-26T02:38:28.049Z,99511.16
2023-03-26T02:40:57.223Z,99551.22
2023-03-26T02:43:26.613Z,99541.66
2023-03-26T02:45:56.551Z,99526.84
2023-03-26T02:48:26.240Z,99532.78
2023-03-26T02:50:55.250Z,99522.16
2023-03-26T02:53:29.941Z,99543.22
2023-03-26T02:55:58.202Z,99541.41
2023-03-26T02:58:32.824Z,99537.97
2023-03-26T03:01:04.137Z,99495.88
2023-03-26T03:03:32.937Z,99488.75
2023-03-26T03:06:04.654Z,99485.22
2023-03-26T03:08:33.843Z,99528.19
2023-03-26T03:11:09.136Z,99490.22
2023-03-26T03:13:39.416Z,99531.13
2023-03-26T03:16:08.508Z,99511.00
2023-03-26T03:18:39.909Z,99523.41
2023-03-26T03:21:10.913Z,99522.69
2023-03-26T03:23:39.072Z,99524.13
2023-03-26T03:26:14.249Z,99513.63
2023-03-26T03:28:46.462Z,99508.00
2023-03-26T03:31:16.009Z,99464.53
2023-03-26T03:33:46.294Z,99473.44
2023-03-26T03:36:20.387Z,99504.34
2023-03-26T03:38:50.702Z,99499.59
2023-03-26T03:41:18.894Z,99490.09
2023-03-26T03:43:48.924Z,99480.91
2023-03-26T03:46:18.247Z,99488.69
2023-03-26T03:48:49.735Z,99470.13
2023-03-26T03:51:22.685Z,99484.94
2023-03-26T03:53:51.006Z,99482.63
2023-03-26T03:56:24.196Z,99480.97
2023-03-26T03:58:55.795Z,99423.84
2023-03-26T04:01:25.331Z,99463.22
2023-03-26T04:03:55.620Z,99402.72
2023-03-26T04:06:25.191Z,99422.72
2023-03-26T04:08:53.744Z,99438.59
2023-03-26T04:11:21.601Z,99448.31
2023-03-26T04:13:50.904Z,99440.97
2023-03-26T04:16:22.165Z,99439.91
2023-03-26T04:18:53.257Z,99447.09
2023-03-26T04:21:21.250Z,99392.78
2023-03-26T04:23:50.687Z,99439.09
2023-03-26T04:26:20.403Z,99406.09
2023-03-26T04:28:54.483Z,99434.56
2023-03-26T04:31:29.450Z,99416.38
2023-03-26T04:34:06.745Z,99391.13
2023-03-26T04:36:36.853Z,99408.28
2023-03-26T04:39:06.969Z,99429.13
2023-03-26T04:41:35.997Z,99388.66
2023-03-26T04:44:05.654Z,99379.72
2023-03-26T04:46:36.749Z,99400.59
2023-03-26T04:49:05.799Z,99402.13
2023-03-26T04:51:39.697Z,99399.59
2023-03-26T04:54:13.594Z,99385.34
2023-03-26T04:56:48.651Z,99359.06
2023-03-26T04:59:26.678Z,99363.81
2023-03-26T05:02:00.219Z,99378.75
2023-03-26T05:04:29.660Z,99362.72
2023-03-26T05:06:59.960Z,99377.94
2023-03-26T05:09:28.951Z,99375.34
2023-03-26T05:11:57.401Z,99368.19
2023-03-26T05:14:25.500Z,99319.25
2023-03-26T05:16:54.654Z,99324.13
2023-03-26T05:19:26.082Z,99303.41
2023-03-26T05:21:56.999Z,99350.66
2023-03-26T05:24:25.918Z,99346.53
2023-03-26T05:26:54.529Z,99322.28
2023-03-26T05:29:24.611Z,99292.31
2023-03-26T05:31:52.839Z,99303.03
2023-03-26T05:34:24.591Z,99308.81
2023-03-26T05:36:55.554Z,99301.84
2023-03-26T05:39:26.564Z,99246.22
2023-03-26T05:41:55.537Z,99291.66
2023-03-26T05:44:25.076Z,99290.94
2023-03-26T05:46:54.649Z,99287.72
2023-03-26T05:49:23.078Z,99291.13
2023-03-26T05:51:51.982Z,99284.94
2023-03-26T05:54:22.848Z,99258.44
2023-03-26T05:56:52.813Z,99272.94
2023-03-26T05:59:22.065Z,99265.03
2023-03-26T06:01:51.206Z,99265.25
2023-03-26T06:04:19.465Z,99208.44
2023-03-26T06:06:48.245Z,99246.06
2023-03-26T06:09:16.934Z,99270.94
2023-03-26T06:11:46.984Z,99258.00
2023-03-26T06:14:18.136Z,99260.69
2023-03-26T06:16:46.241Z,99224.31
2023-03-26T06:19:14.322Z,99214.22
2023-03-26T06:21:43.453Z,99253.28
2023-03-26T06:24:12.555Z,99239.63
2023-03-26T06:26:44.253Z,99241.38
2023-03-26T06:29:15.226Z,99229.38
2023-03-26T06:31:44.191Z,99216.06
2023-03-26T06:34:15.437Z,99218.91
2023-03-26T06:36:52.654Z,99204.63
2023-03-26T06:39:21.605Z,99187.19
2023-03-26T06:41:49.794Z,99213.41
2023-03-26T06:44:20.663Z,99176.69
2023-03-26T06:46:49.297Z,99160.91
2023-03-26T06:49:17.656Z,99183.84
2023-03-26T06:51:50.481Z,99191.66
2023-03-26T06:54:18.943Z,99181.66
2023-03-26T06:56:47.935Z,99189.53
2023-03-26T06:59:17.782Z,99147.41
2023-03-26T07:01:48.206Z,99164.25
2023-03-26T07:04:18.150Z,99149.19
2023-03-26T07:06:46.374Z,99178.06
2023-03-26T07:09:16.521Z,99171.22
2023-03-26T07:11:44.679Z,99193.69
2023-03-26T07:14:13.525Z,99188.66
2023-03-26T07:16:41.754Z,99196.22
2023-03-26T07:19:14.311Z,99168.47
2023-03-26T07:21:44.160Z,99182.94
2023-03-26T07:24:17.055Z,99148.91
2023-03-26T07:26:56.901Z,99141.06
2023-03-26T07:29:35.054Z,99176.03
2023-03-26T07:32:17.221Z,99157.53
2023-03-26T07:34:54.911Z,99169.94
2023-03-26T07:37:38.027Z,99168.69
2023-03-26T07:40:17.911Z,99130.66
2023-03-26T07:43:01.819Z,99154.19
2023-03-26T07:45:38.101Z,99150.69
2023-03-26T07:48:15.567Z,99108.41
2023-03-26T07:50:48.907Z,99128.47
2023-03-26T07:53:18.203Z,99100.13
2023-03-26T07:55:54.620Z,99080.19
2023-03-26T07:58:41.783Z,99084.22
2023-03-26T08:01:18.171Z,99134.50
2023-03-26T08:04:23.845Z,99113.41
2023-03-26T08:07:01.214Z,99114.78
2023-03-26T08:09:35.151Z,99110.41
2023-03-26T08:12:14.886Z,99080.25
2023-03-26T08:14:52.996Z,99108.78
2023-03-26T08:17:32.408Z,99047.03
2023-03-26T08:20:17.299Z,99086.31
2023-03-26T08:22:55.224Z,99095.28
2023-03-26T08:25:33.400Z,99114.09
2023-03-26T08:28:15.298Z,99103.03
2023-03-26T08:30:45.658Z,99098.94
2023-03-26T08:33:20.614Z,99103.09
2023-03-26T08:35:50.411Z,99053.91
2023-03-26T08:38:21.499Z,99097.75
2023-03-26T08:41:24.942Z,99064.09
2023-03-26T08:44:31.417Z,99104.84
2023-03-26T08:47:33.460Z,99083.44
2023-03-26T08:50:50.589Z,99096.16
2023-03-26T08:53:57.668Z,99102.59
2023-03-26T08:56:43.887Z,99093.59
2023-03-26T09:00:08.621Z,99094.53
2023-03-26T09:03:08.874Z,99089.69
2023-03-26T09:06:20.715Z,99094.56
2023-03-26T09:09:30.676Z,99070.91
2023-03-26T09:12:40.742Z,99037.16
2023-03-26T09:15:51.704Z,99070.38
2023-03-26T09:19:05.115Z,99061.25
2023-03-26T09:22:13.683Z,99058.31
2023-03-26T09:25:20.362Z,99058.22
2023-03-26T09:28:20.820Z,99055.41
2023-03-26T09:31:21.939Z,99029.47
2023-03-26T09:33:59.457Z,99022.78
2023-03-26T09:36:55.468Z,99016.81
2023-03-26T09:39:36.087Z,99052.72
2023-03-26T09:42:14.384Z,99038.13
2023-03-26T09:45:06.451Z,99038.53
2023-03-26T09:48:10.120Z,99033.59
2023-03-26T09:51:04.607Z,99030.97
2023-03-26T09:54:13.090Z,99017.34
2023-03-26T09:56:52.379Z,99015.88
2023-03-26T09:59:54.772Z,98999.97
2023-03-26T10:02:50.276Z,98961.22
2023-03-26T10:05:34.928Z,99024.66
2023-03-26T10:08:32.228Z,99022.34
2023-03-26T10:11:13.045Z,99013.59
2023-03-26T10:13:56.396Z,99001.50
2023-03-26T10:16:34.916Z,99003.34
2023-03-26T10:19:26.105Z,98994.44
2023-03-26T10:22:04.747Z,99011.94
2023-03-26T10:24:45.876Z,98982.34
2023-03-26T10:27:29.786Z,98986.47
2023-03-26T10:30:35.890Z,99000.03
2023-03-26T10:33:14.824Z,98984.81
2023-03-26T10:36:06.222Z,98988.63
2023-03-26T10:38:48.663Z,98975.44
2023-03-26T10:41:23.367Z,98979.44
2023-03-26T10:44:27.136Z,98966.50
2023-03-26T10:47:22.920Z,98973.66
2023-03-26T10:50:22.757Z,98935.22
2023-03-26T10:52:59.709Z,98957.63
2023-03-26T10:55:33.332Z,98903.78
2023-03-26T10:58:06.462Z,98923.97
2023-03-26T11:00:40.636Z,98905.31
2023-03-26T11:03:34.436Z,98941.22
2023-03-26T11:06:17.617Z,98893.28
2023-03-26T11:08:56.927Z,98940.38
2023-03-26T11:11:36.184Z,98947.47
2023-03-26T11:14:24.408Z,98941.06
2023-03-26T11:17:39.612Z,98922.66
2023-03-26T11:20:29.526Z,98929.53
2023-03-26T11:23:19.032Z,98911.47
2023-03-26T11:26:05.340Z,98924.91
2023-03-26T11:29:03.567Z,98923.97
2023-03-26T11:31:50.680Z,98919.47
2023-03-26T11:34:24.435Z,98885.19
2023-03-26T11:37:04.055Z,98938.75
2023-03-26T11:39:45.711Z,98920.00
2023-03-26T11:42:24.138Z,98938.09
2023-03-26T11:44:58.628Z,98939.88
2023-03-26T11:47:34.326Z,98938.00
2023-03-26T11:50:25.048Z,98937.94
2023-03-26T11:52:54.983Z,98939.31
2023-03-26T11:55:34.972Z,98885.44
2023-03-26T11:58:13.664Z,98910.78
2023-03-26T12:00:50.912Z,98871.97
2023-03-26T12:03:23.076Z,98878.06
2023-03-26T12:06:04.448Z,98902.13
2023-03-26T12:08:39.651Z,98860.66
2023-03-26T12:11:11.645Z,98888.91
2023-03-26T12:13:46.012Z,98837.13
2023-03-26T12:16:18.409Z,98858.53
2023-03-26T12:19:06.250Z,98884.25
2023-03-26T12:21:53.587Z,98877.25
2023-03-26T12:24:33.284Z,98870.75
2023-03-26T12:27:06.160Z,98885.75
2023-03-26T12:29:38.520Z,98883.91
2023-03-26T12:32:14.485Z,98887.38
2023-03-26T12:34:43.102Z,98881.38
2023-03-26T12:37:38.042Z,98871.63
2023-03-26T12:40:27.235Z,98867.97
2023-03-26T12:44:53.234Z,98809.81
2023-03-26T12:47:54.123Z,98839.28
2023-03-26T12:48:53.802Z,98860.13
2023-03-26T12:51:42.104Z,98865.06
2023-03-26T12:54:39.188Z,98856.88
2023-03-26T12:57:22.899Z,98838.66
2023-03-26T13:00:14.816Z,98840.53
2023-03-26T13:03:01.560Z,98827.72
2023-03-26T13:05:41.280Z,98816.56
2023-03-26T13:08:33.043Z,98828.53
2023-03-26T13:11:12.736Z,98798.06
2023-03-26T13:14:00.856Z,98828.53
2023-03-26T13:16:38.317Z,98822.81
2023-03-26T13:19:14.514Z,98825.00
2023-03-26T13:21:56.664Z,98812.69
2023-03-26T13:24:39.239Z,98787.31
2023-03-26T13:27:23.493Z,98817.84
2023-03-26T13:29:57.773Z,98821.66
2023-03-26T13:32:41.445Z,98811.50
2023-03-26T13:35:26.017Z,98815.41
2023-03-26T13:38:01.096Z,98805.06
2023-03-26T13:40:43.225Z,98759.88
2023-03-26T13:43:31.047Z,98781.91
2023-03-26T13:46:08.980Z,98780.78
2023-03-26T13:48:48.035Z,98772.06
2023-03-26T13:51:20.979Z,98799.84
2023-03-26T13:54:01.692Z,98797.97
2023-03-26T13:56:36.846Z,98790.28
2023-03-26T13:59:15.242Z,98795.03
2023-03-26T14:01:53.983Z,98773.47
2023-03-26T14:04:27.055Z,98768.78
2023-03-26T14:07:04.209Z,98782.44
2023-03-26T14:09:38.572Z,98806.19
2023-03-26T14:12:40.657Z,98813.81
2023-03-26T14:15:18.628Z,98785.19
2023-03-26T14:17:52.031Z,98777.41
2023-03-26T14:20:56.483Z,98778.63
2023-03-26T14:23:46.130Z,98760.69
2023-03-26T14:26:27.511Z,98786.25
2023-03-26T14:29:26.177Z,98755.25
2023-03-26T14:32:04.656Z,98770.44
2023-03-26T14:34:46.805Z,98752.97
2023-03-26T14:38:09.195Z,98774.59
2023-03-26T14:41:03.739Z,98772.66
2023-03-26T14:44:04.125Z,98747.41
2023-03-26T14:46:47.370Z,98753.91
2023-03-26T14:49:40.709Z,98736.94
2023-03-26T14:52:19.649Z,98707.78
2023-03-26T14:54:53.583Z,98710.81
2023-03-26T14:57:47.882Z,98735.69
2023-03-26T15:00:38.301Z,98719.22
2023-03-26T15:03:53.887Z,98695.72
2023-03-26T15:06:53.884Z,98718.66
2023-03-26T15:09:57.960Z,98721.50
2023-03-26T15:12:42.536Z,98701.38
2023-03-26T15:15:53.885Z,98709.22
2023-03-26T15:19:14.600Z,98710.75
2023-03-26T15:22:20.412Z,98721.88
2023-03-26T15:25:31.816Z,98709.81
2023-03-26T15:31:51.783Z,98712.97
2023-03-26T15:34:50.751Z,98714.50
2023-03-26T15:37:44.120Z,98698.56
2023-03-26T15:40:43.025Z,98739.47
2023-03-26T15:43:16.706Z,98756.53
2023-03-26T15:45:48.463Z,98690.97
2023-03-26T15:48:43.071Z,98735.63
2023-03-26T15:51:47.807Z,98702.97
2023-03-26T15:54:24.286Z,98783.06
2023-03-26T15:57:18.723Z,98821.22
2023-03-26T16:00:15.096Z,98855.97
2023-03-26T16:03:09.239Z,98886.00
2023-03-26T16:06:00.265Z,98882.53
2023-03-26T16:08:39.154Z,98896.16
2023-03-26T16:11:12.630Z,98903.16
2023-03-26T17:40:50.365Z,98919.97
2023-03-26T17:43:52.889Z,98908.16
2023-03-26T17:55:52.131Z,98881.72
2023-03-26T17:58:33.944Z,98925.31
2023-03-26T18:01:46.121Z,98878.59
2023-03-26T18:08:32.652Z,98932.19
2023-03-26T18:20:33.221Z,98960.25
2023-03-26T18:23:27.591Z,98954.75
2023-03-26T18:26:03.089Z,98879.47
2023-03-26T18:28:41.993Z,98963.13
2023-03-26T18:31:23.401Z,98904.00
2023-03-26T18:34:05.086Z,98912.78
2023-03-26T18:43:44.460Z,98863.19
2023-03-26T18:46:24.116Z,98973.28
2023-03-26T18:48:57.897Z,98973.09
2023-03-26T18:51:46.370Z,98971.72
2023-03-26T18:57:23.955Z,98939.75
2023-03-26T19:06:11.463Z,98974.38
2023-03-26T19:08:44.240Z,98928.72
2023-03-26T19:11:23.789Z,98888.81
2023-03-26T19:14:07.121Z,98939.19
2023-03-26T19:16:44.646Z,98892.03
2023-03-26T19:19:20.829Z,98946.31
2023-03-26T19:24:37.499Z,98947.66
2023-03-26T19:27:10.101Z,98977.13
2023-03-26T19:32:34.606Z,98979.88
2023-03-26T19:35:16.770Z,98948.25
2023-03-26T19:37:57.571Z,98943.66
2023-03-26T19:44:16.181Z,98931.69
2023-03-26T19:53:37.121Z,98925.34
2023-03-26T20:15:22.345Z,98985.91
2023-03-26T20:22:09.598Z,98910.31
2023-03-26T20:41:54.709Z,99055.09
2023-03-26T20:48:32.117Z,98979.41
2023-03-26T20:54:37.802Z,99067.09
2023-03-26T20:57:16.902Z,99008.75
2023-03-26T21:02:32.951Z,99056.75
2023-03-26T21:05:03.027Z,99067.91
2023-03-26T21:07:35.636Z,98984.84
2023-03-26T21:10:09.994Z,99105.47
2023-03-26T21:12:46.003Z,99112.13
2023-03-26T21:15:22.808Z,99026.63
2023-03-26T21:17:55.193Z,99055.34
2023-03-26T21:20:30.247Z,99070.34
2023-03-26T21:23:10.964Z,99131.84
2023-03-26T21:25:55.354Z,99019.09
2023-03-26T21:31:26.041Z,99141.38
2023-03-26T21:33:57.496Z,99090.44
2023-03-26T21:36:30.593Z,99136.56
2023-03-26T21:39:42.406Z,99089.88
2023-03-26T21:42:18.204Z,99167.81
2023-03-26T21:45:10.192Z,99150.75
2023-03-26T21:48:02.945Z,99145.78
2023-03-26T21:50:38.901Z,99185.22
2023-03-26T22:03:01.062Z,99205.38
2023-03-26T22:05:52.020Z,99174.47
2023-03-26T22:08:44.582Z,99242.31
2023-03-26T22:11:18.052Z,99232.28
2023-03-26T22:13:47.088Z,99217.19
